sensor_id;sensor_type;location;lat;lon;timestamp;P1;durP1;ratioP1;P2;durP2;ratioP2
13349;SDS011;6744;53.190;6.576;2022-12-15T00:01:46;7.30;;;6.33;;
13349;SDS011;6744;53.190;6.576;2022-12-15T00:04:30;7.50;;;6.20;;
13349;SDS011;6744;53.190;6.576;2022-12-15T00:07:14;8.77;;;6.87;;
13349;SDS011;6744;53.190;6.576;2022-12-15T00:09:58;7.67;;;6.43;;
13349;SDS011;6744;53.190;6.576;2022-12-15T00:12:42;6.97;;;6.00;;
13349;SDS011;6744;53.190;6.576;2022-12-15T00:15:26;6.60;;;5.90;;
13349;SDS011;6744;53.190;6.576;2022-12-15T00:18:10;7.33;;;5.87;;
13349;SDS011;6744;53.190;6.576;2022-12-15T00:20:58;7.63;;;5.80;;
13349;SDS011;6744;53.190;6.576;2022-12-15T00:23:42;6.90;;;5.93;;
13349;SDS011;6744;53.190;6.576;2022-12-15T00:26:26;6.77;;;6.03;;
13349;SDS011;6744;53.190;6.576;2022-12-15T00:29:10;6.30;;;5.47;;
13349;SDS011;6744;53.190;6.576;2022-12-15T00:31:54;7.20;;;5.47;;
13349;SDS011;6744;53.190;6.576;2022-12-15T00:34:38;6.40;;;5.70;;
13349;SDS011;6744;53.190;6.576;2022-12-15T00:37:22;6.60;;;5.50;;
13349;SDS011;6744;53.190;6.576;2022-12-15T00:40:06;6.17;;;5.33;;
13349;SDS011;6744;53.190;6.576;2022-12-15T00:42:31;5.57;;;4.97;;
13349;SDS011;6744;53.190;6.576;2022-12-15T00:44:57;6.40;;;5.50;;
13349;SDS011;6744;53.190;6.576;2022-12-15T00:47:23;6.67;;;5.47;;
13349;SDS011;6744;53.190;6.576;2022-12-15T00:49:49;5.80;;;5.10;;
13349;SDS011;6744;53.190;6.576;2022-12-15T00:52:33;5.43;;;4.80;;
13349;SDS011;6744;53.190;6.576;2022-12-15T00:55:17;6.00;;;5.40;;
13349;SDS011;6744;53.190;6.576;2022-12-15T00:58:01;6.23;;;5.13;;
13349;SDS011;6744;53.190;6.576;2022-12-15T01:00:45;5.97;;;4.77;;
13349;SDS011;6744;53.190;6.576;2022-12-15T01:03:29;5.53;;;4.87;;
13349;SDS011;6744;53.190;6.576;2022-12-15T01:06:14;5.87;;;5.00;;
13349;SDS011;6744;53.190;6.576;2022-12-15T01:09:00;5.53;;;4.97;;
13349;SDS011;6744;53.190;6.576;2022-12-15T01:11:44;5.43;;;4.83;;
13349;SDS011;6744;53.190;6.576;2022-12-15T01:14:28;5.73;;;5.10;;
13349;SDS011;6744;53.190;6.576;2022-12-15T01:17:13;6.17;;;5.10;;
13349;SDS011;6744;53.190;6.576;2022-12-15T01:19:57;5.83;;;5.17;;
13349;SDS011;6744;53.190;6.576;2022-12-15T01:22:42;6.07;;;4.97;;
13349;SDS011;6744;53.190;6.576;2022-12-15T01:25:15;6.03;;;5.07;;
13349;SDS011;6744;53.190;6.576;2022-12-15T01:27:41;6.60;;;5.07;;
13349;SDS011;6744;53.190;6.576;2022-12-15T01:30:08;6.93;;;5.60;;
13349;SDS011;6744;53.190;6.576;2022-12-15T01:32:34;5.53;;;4.67;;
13349;SDS011;6744;53.190;6.576;2022-12-15T01:35:00;5.97;;;5.00;;
13349;SDS011;6744;53.190;6.576;2022-12-15T01:37:25;6.23;;;5.03;;
13349;SDS011;6744;53.190;6.576;2022-12-15T01:39:50;6.67;;;4.87;;
13349;SDS011;6744;53.190;6.576;2022-12-15T01:42:34;5.37;;;4.43;;
13349;SDS011;6744;53.190;6.576;2022-12-15T01:47:57;6.03;;;5.00;;
13349;SDS011;6744;53.190;6.576;2022-12-15T01:50:25;6.07;;;4.83;;
13349;SDS011;6744;53.190;6.576;2022-12-15T01:52:53;5.83;;;4.60;;
13349;SDS011;6744;53.190;6.576;2022-12-15T01:55:19;4.90;;;4.40;;
13349;SDS011;6744;53.190;6.576;2022-12-15T01:57:46;6.47;;;4.97;;
13349;SDS011;6744;53.190;6.576;2022-12-15T02:00:12;5.23;;;4.57;;
13349;SDS011;6744;53.190;6.576;2022-12-15T02:02:38;4.97;;;4.20;;
13349;SDS011;6744;53.190;6.576;2022-12-15T02:05:04;4.67;;;3.93;;
13349;SDS011;6744;53.190;6.576;2022-12-15T02:07:30;5.30;;;4.40;;
13349;SDS011;6744;53.190;6.576;2022-12-15T02:09:56;6.07;;;4.60;;
13349;SDS011;6744;53.190;6.576;2022-12-15T02:12:30;6.13;;;4.83;;
13349;SDS011;6744;53.190;6.576;2022-12-15T02:15:05;7.00;;;4.90;;
13349;SDS011;6744;53.190;6.576;2022-12-15T02:18:11;5.27;;;4.33;;
13349;SDS011;6744;53.190;6.576;2022-12-15T02:20:55;4.53;;;4.03;;
13349;SDS011;6744;53.190;6.576;2022-12-15T02:28:59;4.93;;;4.40;;
13349;SDS011;6744;53.190;6.576;2022-12-15T02:31:39;6.27;;;4.60;;
13349;SDS011;6744;53.190;6.576;2022-12-15T02:34:15;6.03;;;4.63;;
13349;SDS011;6744;53.190;6.576;2022-12-15T02:36:45;5.50;;;4.60;;
13349;SDS011;6744;53.190;6.576;2022-12-15T02:39:14;5.27;;;4.53;;
13349;SDS011;6744;53.190;6.576;2022-12-15T02:41:40;5.90;;;4.87;;
13349;SDS011;6744;53.190;6.576;2022-12-15T02:58:41;4.97;;;4.47;;
13349;SDS011;6744;53.190;6.576;2022-12-15T03:01:13;4.83;;;4.30;;
13349;SDS011;6744;53.190;6.576;2022-12-15T03:03:42;4.70;;;4.00;;
13349;SDS011;6744;53.190;6.576;2022-12-15T03:06:09;5.23;;;4.37;;
13349;SDS011;6744;53.190;6.576;2022-12-15T03:08:34;4.70;;;4.13;;
13349;SDS011;6744;53.190;6.576;2022-12-15T03:11:00;6.03;;;4.17;;
13349;SDS011;6744;53.190;6.576;2022-12-15T03:13:25;5.67;;;4.17;;
13349;SDS011;6744;53.190;6.576;2022-12-15T03:15:51;4.70;;;3.97;;
13349;SDS011;6744;53.190;6.576;2022-12-15T03:18:18;4.67;;;3.90;;
13349;SDS011;6744;53.190;6.576;2022-12-15T03:20:43;5.00;;;4.13;;
13349;SDS011;6744;53.190;6.576;2022-12-15T03:23:09;5.13;;;4.57;;
13349;SDS011;6744;53.190;6.576;2022-12-15T03:25:34;4.60;;;4.20;;
13349;SDS011;6744;53.190;6.576;2022-12-15T03:27:59;4.40;;;4.00;;
13349;SDS011;6744;53.190;6.576;2022-12-15T03:30:25;4.70;;;4.00;;
13349;SDS011;6744;53.190;6.576;2022-12-15T03:32:50;5.10;;;4.03;;
13349;SDS011;6744;53.190;6.576;2022-12-15T03:35:15;4.43;;;3.87;;
13349;SDS011;6744;53.190;6.576;2022-12-15T03:37:41;4.40;;;3.53;;
13349;SDS011;6744;53.190;6.576;2022-12-15T03:40:07;5.87;;;3.60;;
13349;SDS011;6744;53.190;6.576;2022-12-15T03:42:33;4.43;;;3.67;;
13349;SDS011;6744;53.190;6.576;2022-12-15T03:45:25;5.00;;;3.60;;
13349;SDS011;6744;53.190;6.576;2022-12-15T03:47:51;5.03;;;3.50;;
13349;SDS011;6744;53.190;6.576;2022-12-15T03:50:18;4.27;;;3.33;;
13349;SDS011;6744;53.190;6.576;2022-12-15T03:52:53;5.27;;;3.50;;
13349;SDS011;6744;53.190;6.576;2022-12-15T03:55:20;4.03;;;3.10;;
13349;SDS011;6744;53.190;6.576;2022-12-15T03:57:45;3.40;;;2.90;;
13349;SDS011;6744;53.190;6.576;2022-12-15T04:00:11;5.87;;;3.67;;
13349;SDS011;6744;53.190;6.576;2022-12-15T04:02:41;3.67;;;3.00;;
13349;SDS011;6744;53.190;6.576;2022-12-15T04:05:07;4.43;;;3.00;;
13349;SDS011;6744;53.190;6.576;2022-12-15T04:07:32;3.37;;;2.60;;
13349;SDS011;6744;53.190;6.576;2022-12-15T04:09:58;3.50;;;2.90;;
13349;SDS011;6744;53.190;6.576;2022-12-15T04:12:23;3.00;;;2.70;;
13349;SDS011;6744;53.190;6.576;2022-12-15T04:14:48;3.73;;;2.57;;
13349;SDS011;6744;53.190;6.576;2022-12-15T04:17:14;3.20;;;2.70;;
13349;SDS011;6744;53.190;6.576;2022-12-15T04:19:39;3.30;;;2.47;;
13349;SDS011;6744;53.190;6.576;2022-12-15T04:22:23;3.60;;;2.27;;
13349;SDS011;6744;53.190;6.576;2022-12-15T04:24:48;4.93;;;2.53;;
13349;SDS011;6744;53.190;6.576;2022-12-15T04:27:32;2.37;;;2.03;;
13349;SDS011;6744;53.190;6.576;2022-12-15T04:30:17;3.83;;;2.50;;
13349;SDS011;6744;53.190;6.576;2022-12-15T04:33:00;2.97;;;2.30;;
13349;SDS011;6744;53.190;6.576;2022-12-15T04:35:45;3.67;;;2.50;;
13349;SDS011;6744;53.190;6.576;2022-12-15T04:38:29;3.13;;;2.47;;
13349;SDS011;6744;53.190;6.576;2022-12-15T04:41:13;4.50;;;2.53;;
13349;SDS011;6744;53.190;6.576;2022-12-15T04:43:57;3.53;;;2.50;;
13349;SDS011;6744;53.190;6.576;2022-12-15T04:46:41;3.47;;;2.20;;
13349;SDS011;6744;53.190;6.576;2022-12-15T04:49:25;4.73;;;2.43;;
13349;SDS011;6744;53.190;6.576;2022-12-15T04:52:09;5.37;;;2.67;;
13349;SDS011;6744;53.190;6.576;2022-12-15T04:54:53;4.33;;;2.67;;
13349;SDS011;6744;53.190;6.576;2022-12-15T04:57:37;3.90;;;3.10;;
13349;SDS011;6744;53.190;6.576;2022-12-15T05:00:21;6.43;;;3.30;;
13349;SDS011;6744;53.190;6.576;2022-12-15T05:03:05;4.17;;;3.40;;
13349;SDS011;6744;53.190;6.576;2022-12-15T05:05:50;6.47;;;3.50;;
13349;SDS011;6744;53.190;6.576;2022-12-15T05:08:34;5.87;;;3.53;;
13349;SDS011;6744;53.190;6.576;2022-12-15T05:11:18;6.73;;;3.80;;
13349;SDS011;6744;53.190;6.576;2022-12-15T05:14:02;5.27;;;3.73;;
13349;SDS011;6744;53.190;6.576;2022-12-15T05:16:46;5.40;;;3.80;;
13349;SDS011;6744;53.190;6.576;2022-12-15T05:19:29;4.40;;;3.80;;
13349;SDS011;6744;53.190;6.576;2022-12-15T05:22:13;6.03;;;3.83;;
13349;SDS011;6744;53.190;6.576;2022-12-15T05:24:57;6.10;;;4.00;;
13349;SDS011;6744;53.190;6.576;2022-12-15T05:27:41;5.47;;;3.60;;
13349;SDS011;6744;53.190;6.576;2022-12-15T05:30:25;6.07;;;3.90;;
13349;SDS011;6744;53.190;6.576;2022-12-15T05:33:09;4.87;;;3.90;;
13349;SDS011;6744;53.190;6.576;2022-12-15T05:35:35;5.57;;;4.10;;
13349;SDS011;6744;53.190;6.576;2022-12-15T05:38:00;6.57;;;3.80;;
13349;SDS011;6744;53.190;6.576;2022-12-15T05:40:25;4.67;;;4.17;;
13349;SDS011;6744;53.190;6.576;2022-12-15T05:42:51;5.37;;;4.00;;
13349;SDS011;6744;53.190;6.576;2022-12-15T05:45:16;6.20;;;3.80;;
13349;SDS011;6744;53.190;6.576;2022-12-15T05:47:41;4.80;;;4.13;;
13349;SDS011;6744;53.190;6.576;2022-12-15T05:50:07;4.73;;;3.67;;
13349;SDS011;6744;53.190;6.576;2022-12-15T05:52:32;6.23;;;4.40;;
13349;SDS011;6744;53.190;6.576;2022-12-15T05:54:58;5.73;;;4.10;;
13349;SDS011;6744;53.190;6.576;2022-12-15T05:57:23;5.40;;;4.27;;
13349;SDS011;6744;53.190;6.576;2022-12-15T05:59:48;6.27;;;4.83;;
13349;SDS011;6744;53.190;6.576;2022-12-15T06:02:14;5.73;;;4.60;;
13349;SDS011;6744;53.190;6.576;2022-12-15T06:04:39;5.33;;;4.33;;
13349;SDS011;6744;53.190;6.576;2022-12-15T06:07:04;6.17;;;4.73;;
13349;SDS011;6744;53.190;6.576;2022-12-15T06:09:30;5.13;;;4.60;;
13349;SDS011;6744;53.190;6.576;2022-12-15T06:11:55;6.57;;;4.93;;
13349;SDS011;6744;53.190;6.576;2022-12-15T06:14:20;7.07;;;4.83;;
13349;SDS011;6744;53.190;6.576;2022-12-15T06:16:46;6.53;;;4.83;;
13349;SDS011;6744;53.190;6.576;2022-12-15T06:19:11;5.10;;;4.60;;
13349;SDS011;6744;53.190;6.576;2022-12-15T06:21:36;7.60;;;5.67;;
13349;SDS011;6744;53.190;6.576;2022-12-15T06:24:03;7.00;;;4.53;;
13349;SDS011;6744;53.190;6.576;2022-12-15T06:26:32;4.83;;;4.27;;
13349;SDS011;6744;53.190;6.576;2022-12-15T06:28:59;7.20;;;4.57;;
13349;SDS011;6744;53.190;6.576;2022-12-15T06:31:29;5.43;;;4.57;;
13349;SDS011;6744;53.190;6.576;2022-12-15T06:33:55;6.20;;;4.43;;
13349;SDS011;6744;53.190;6.576;2022-12-15T06:36:21;6.27;;;4.90;;
13349;SDS011;6744;53.190;6.576;2022-12-15T06:38:48;6.17;;;4.23;;
13349;SDS011;6744;53.190;6.576;2022-12-15T06:41:14;5.07;;;4.57;;
13349;SDS011;6744;53.190;6.576;2022-12-15T06:43:41;7.13;;;4.40;;
13349;SDS011;6744;53.190;6.576;2022-12-15T06:46:06;4.90;;;4.17;;
13349;SDS011;6744;53.190;6.576;2022-12-15T06:48:32;6.30;;;4.40;;
13349;SDS011;6744;53.190;6.576;2022-12-15T06:51:02;4.87;;;4.20;;
13349;SDS011;6744;53.190;6.576;2022-12-15T06:53:29;7.67;;;4.93;;
13349;SDS011;6744;53.190;6.576;2022-12-15T06:55:58;7.43;;;4.70;;
13349;SDS011;6744;53.190;6.576;2022-12-15T06:58:25;5.27;;;4.00;;
13349;SDS011;6744;53.190;6.576;2022-12-15T07:00:51;5.40;;;4.40;;
13349;SDS011;6744;53.190;6.576;2022-12-15T07:03:17;5.50;;;4.37;;
13349;SDS011;6744;53.190;6.576;2022-12-15T07:05:43;5.13;;;4.60;;
13349;SDS011;6744;53.190;6.576;2022-12-15T07:08:12;6.13;;;4.50;;
13349;SDS011;6744;53.190;6.576;2022-12-15T07:10:39;5.87;;;4.60;;
13349;SDS011;6744;53.190;6.576;2022-12-15T07:13:09;5.80;;;4.50;;
13349;SDS011;6744;53.190;6.576;2022-12-15T07:15:35;8.40;;;4.20;;
13349;SDS011;6744;53.190;6.576;2022-12-15T07:18:01;7.10;;;4.40;;
13349;SDS011;6744;53.190;6.576;2022-12-15T07:20:27;6.10;;;4.10;;
13349;SDS011;6744;53.190;6.576;2022-12-15T07:22:53;6.90;;;4.20;;
13349;SDS011;6744;53.190;6.576;2022-12-15T07:25:18;6.73;;;4.67;;
13349;SDS011;6744;53.190;6.576;2022-12-15T07:27:44;6.10;;;4.33;;
13349;SDS011;6744;53.190;6.576;2022-12-15T07:30:10;5.63;;;4.17;;
13349;SDS011;6744;53.190;6.576;2022-12-15T07:32:36;5.17;;;4.30;;
13349;SDS011;6744;53.190;6.576;2022-12-15T07:35:02;7.17;;;4.50;;
13349;SDS011;6744;53.190;6.576;2022-12-15T07:37:29;5.37;;;4.57;;
13349;SDS011;6744;53.190;6.576;2022-12-15T07:39:55;5.47;;;4.20;;
13349;SDS011;6744;53.190;6.576;2022-12-15T07:42:20;6.20;;;4.53;;
13349;SDS011;6744;53.190;6.576;2022-12-15T07:44:45;6.30;;;3.90;;
13349;SDS011;6744;53.190;6.576;2022-12-15T07:47:10;9.10;;;4.70;;
13349;SDS011;6744;53.190;6.576;2022-12-15T07:49:36;6.30;;;4.00;;
13349;SDS011;6744;53.190;6.576;2022-12-15T07:52:01;7.03;;;4.33;;
13349;SDS011;6744;53.190;6.576;2022-12-15T07:54:26;7.90;;;4.97;;
13349;SDS011;6744;53.190;6.576;2022-12-15T07:56:53;5.27;;;4.00;;
13349;SDS011;6744;53.190;6.576;2022-12-15T07:59:18;7.20;;;4.40;;
13349;SDS011;6744;53.190;6.576;2022-12-15T08:01:43;6.00;;;4.37;;
13349;SDS011;6744;53.190;6.576;2022-12-15T08:04:09;7.23;;;4.73;;
13349;SDS011;6744;53.190;6.576;2022-12-15T08:06:34;6.13;;;4.47;;
13349;SDS011;6744;53.190;6.576;2022-12-15T08:09:00;6.77;;;4.50;;
13349;SDS011;6744;53.190;6.576;2022-12-15T08:11:25;6.90;;;4.40;;
13349;SDS011;6744;53.190;6.576;2022-12-15T08:13:51;6.93;;;5.27;;
13349;SDS011;6744;53.190;6.576;2022-12-15T08:16:17;7.40;;;4.30;;
13349;SDS011;6744;53.190;6.576;2022-12-15T08:18:42;5.23;;;4.50;;
13349;SDS011;6744;53.190;6.576;2022-12-15T08:21:08;6.43;;;4.40;;
13349;SDS011;6744;53.190;6.576;2022-12-15T08:23:34;6.67;;;4.57;;
13349;SDS011;6744;53.190;6.576;2022-12-15T08:26:01;9.00;;;4.67;;
13349;SDS011;6744;53.190;6.576;2022-12-15T08:28:31;6.03;;;4.03;;
13349;SDS011;6744;53.190;6.576;2022-12-15T08:31:05;5.83;;;4.43;;
13349;SDS011;6744;53.190;6.576;2022-12-15T08:33:32;6.33;;;4.30;;
13349;SDS011;6744;53.190;6.576;2022-12-15T08:35:58;8.03;;;4.63;;
13349;SDS011;6744;53.190;6.576;2022-12-15T08:38:25;5.63;;;4.60;;
13349;SDS011;6744;53.190;6.576;2022-12-15T08:40:50;4.83;;;4.07;;
13349;SDS011;6744;53.190;6.576;2022-12-15T08:43:16;5.73;;;4.63;;
13349;SDS011;6744;53.190;6.576;2022-12-15T08:45:41;5.93;;;4.10;;
13349;SDS011;6744;53.190;6.576;2022-12-15T08:48:06;6.80;;;4.10;;
13349;SDS011;6744;53.190;6.576;2022-12-15T08:50:32;8.23;;;4.57;;
13349;SDS011;6744;53.190;6.576;2022-12-15T08:52:57;6.87;;;4.20;;
13349;SDS011;6744;53.190;6.576;2022-12-15T08:55:22;5.17;;;4.30;;
13349;SDS011;6744;53.190;6.576;2022-12-15T08:57:49;6.63;;;4.60;;
13349;SDS011;6744;53.190;6.576;2022-12-15T09:00:14;6.70;;;4.43;;
13349;SDS011;6744;53.190;6.576;2022-12-15T09:02:42;6.47;;;4.17;;
13349;SDS011;6744;53.190;6.576;2022-12-15T09:05:07;7.83;;;4.60;;
13349;SDS011;6744;53.190;6.576;2022-12-15T09:07:33;7.43;;;4.77;;
13349;SDS011;6744;53.190;6.576;2022-12-15T09:09:58;5.47;;;4.60;;
13349;SDS011;6744;53.190;6.576;2022-12-15T09:12:23;6.53;;;4.53;;
13349;SDS011;6744;53.190;6.576;2022-12-15T09:14:49;6.30;;;4.47;;
13349;SDS011;6744;53.190;6.576;2022-12-15T09:17:14;7.13;;;4.50;;
13349;SDS011;6744;53.190;6.576;2022-12-15T09:19:39;5.73;;;4.27;;
13349;SDS011;6744;53.190;6.576;2022-12-15T09:22:06;6.53;;;4.77;;
13349;SDS011;6744;53.190;6.576;2022-12-15T09:24:31;6.30;;;4.23;;
13349;SDS011;6744;53.190;6.576;2022-12-15T09:26:57;6.70;;;4.67;;
13349;SDS011;6744;53.190;6.576;2022-12-15T09:29:22;8.33;;;4.37;;
13349;SDS011;6744;53.190;6.576;2022-12-15T09:31:48;7.70;;;4.70;;
13349;SDS011;6744;53.190;6.576;2022-12-15T09:34:14;6.53;;;4.80;;
13349;SDS011;6744;53.190;6.576;2022-12-15T09:36:42;5.37;;;4.50;;
13349;SDS011;6744;53.190;6.576;2022-12-15T09:39:08;7.50;;;4.67;;
13349;SDS011;6744;53.190;6.576;2022-12-15T09:41:36;6.00;;;4.47;;
13349;SDS011;6744;53.190;6.576;2022-12-15T09:44:12;6.80;;;4.60;;
13349;SDS011;6744;53.190;6.576;2022-12-15T09:46:41;5.90;;;5.07;;
13349;SDS011;6744;53.190;6.576;2022-12-15T09:51:59;7.80;;;4.80;;
13349;SDS011;6744;53.190;6.576;2022-12-15T09:54:29;7.67;;;4.60;;
13349;SDS011;6744;53.190;6.576;2022-12-15T09:56:56;7.63;;;4.60;;
13349;SDS011;6744;53.190;6.576;2022-12-15T09:59:29;6.10;;;4.30;;
13349;SDS011;6744;53.190;6.576;2022-12-15T10:02:17;7.87;;;4.53;;
13349;SDS011;6744;53.190;6.576;2022-12-15T10:05:15;6.17;;;4.33;;
13349;SDS011;6744;53.190;6.576;2022-12-15T10:08:00;6.77;;;4.53;;
13349;SDS011;6744;53.190;6.576;2022-12-15T10:10:32;8.10;;;4.83;;
13349;SDS011;6744;53.190;6.576;2022-12-15T10:13:03;7.10;;;4.47;;
13349;SDS011;6744;53.190;6.576;2022-12-15T10:15:36;5.40;;;4.60;;
13349;SDS011;6744;53.190;6.576;2022-12-15T10:20:43;7.20;;;4.40;;
13349;SDS011;6744;53.190;6.576;2022-12-15T10:23:10;6.07;;;4.27;;
13349;SDS011;6744;53.190;6.576;2022-12-15T10:25:37;6.17;;;4.70;;
13349;SDS011;6744;53.190;6.576;2022-12-15T10:28:11;6.47;;;4.30;;
13349;SDS011;6744;53.190;6.576;2022-12-15T10:33:22;4.93;;;3.90;;
13349;SDS011;6744;53.190;6.576;2022-12-15T10:35:48;5.93;;;4.53;;
13349;SDS011;6744;53.190;6.576;2022-12-15T10:40:58;5.70;;;4.30;;
13349;SDS011;6744;53.190;6.576;2022-12-15T10:48:32;6.43;;;4.70;;
13349;SDS011;6744;53.190;6.576;2022-12-15T10:56:20;4.40;;;4.00;;
13349;SDS011;6744;53.190;6.576;2022-12-15T10:58:49;7.10;;;4.37;;
13349;SDS011;6744;53.190;6.576;2022-12-15T11:03:52;5.10;;;3.60;;
13349;SDS011;6744;53.190;6.576;2022-12-15T11:06:19;5.90;;;4.20;;
13349;SDS011;6744;53.190;6.576;2022-12-15T11:08:47;7.07;;;4.40;;
13349;SDS011;6744;53.190;6.576;2022-12-15T11:11:28;6.83;;;4.37;;
13349;SDS011;6744;53.190;6.576;2022-12-15T11:14:20;5.27;;;4.07;;
13349;SDS011;6744;53.190;6.576;2022-12-15T11:16:56;8.67;;;3.83;;
13349;SDS011;6744;53.190;6.576;2022-12-15T11:22:25;5.83;;;4.17;;
13349;SDS011;6744;53.190;6.576;2022-12-15T11:27:46;6.97;;;3.70;;
13349;SDS011;6744;53.190;6.576;2022-12-15T11:30:15;7.13;;;4.67;;
13349;SDS011;6744;53.190;6.576;2022-12-15T11:32:49;7.87;;;4.10;;
13349;SDS011;6744;53.190;6.576;2022-12-15T11:35:19;5.37;;;3.87;;
13349;SDS011;6744;53.190;6.576;2022-12-15T11:38:11;6.80;;;4.07;;
13349;SDS011;6744;53.190;6.576;2022-12-15T11:40:40;5.90;;;4.00;;
13349;SDS011;6744;53.190;6.576;2022-12-15T11:54:27;6.47;;;3.77;;
13349;SDS011;6744;53.190;6.576;2022-12-15T12:00:18;10.47;;;4.03;;
13349;SDS011;6744;53.190;6.576;2022-12-15T12:08:00;7.03;;;3.70;;
13349;SDS011;6744;53.190;6.576;2022-12-15T12:10:37;5.10;;;3.70;;
13349;SDS011;6744;53.190;6.576;2022-12-15T12:19:05;7.37;;;3.77;;
13349;SDS011;6744;53.190;6.576;2022-12-15T12:21:36;4.53;;;3.57;;
13349;SDS011;6744;53.190;6.576;2022-12-15T12:24:25;6.13;;;4.10;;
13349;SDS011;6744;53.190;6.576;2022-12-15T12:30:25;5.60;;;3.07;;
13349;SDS011;6744;53.190;6.576;2022-12-15T12:33:20;6.97;;;3.73;;
13349;SDS011;6744;53.190;6.576;2022-12-15T12:35:59;5.60;;;3.70;;
13349;SDS011;6744;53.190;6.576;2022-12-15T12:38:40;7.03;;;3.60;;
13349;SDS011;6744;53.190;6.576;2022-12-15T12:41:22;6.70;;;3.87;;
13349;SDS011;6744;53.190;6.576;2022-12-15T12:43:54;6.53;;;4.00;;
13349;SDS011;6744;53.190;6.576;2022-12-15T12:49:30;8.50;;;3.70;;
13349;SDS011;6744;53.190;6.576;2022-12-15T12:51:58;5.40;;;3.53;;
13349;SDS011;6744;53.190;6.576;2022-12-15T12:56:56;5.30;;;3.60;;
13349;SDS011;6744;53.190;6.576;2022-12-15T13:01:53;6.60;;;3.50;;
13349;SDS011;6744;53.190;6.576;2022-12-15T13:06:56;6.10;;;3.30;;
13349;SDS011;6744;53.190;6.576;2022-12-15T13:09:23;4.60;;;3.30;;
13349;SDS011;6744;53.190;6.576;2022-12-15T13:12:00;9.70;;;3.90;;
13349;SDS011;6744;53.190;6.576;2022-12-15T13:14:30;7.53;;;3.33;;
13349;SDS011;6744;53.190;6.576;2022-12-15T13:17:01;5.83;;;3.27;;
13349;SDS011;6744;53.190;6.576;2022-12-15T13:22:36;7.00;;;3.37;;
13349;SDS011;6744;53.190;6.576;2022-12-15T13:25:20;5.03;;;3.40;;
13349;SDS011;6744;53.190;6.576;2022-12-15T13:27:50;6.23;;;3.53;;
13349;SDS011;6744;53.190;6.576;2022-12-15T13:30:16;6.57;;;3.40;;
13349;SDS011;6744;53.190;6.576;2022-12-15T13:32:45;4.47;;;3.07;;
13349;SDS011;6744;53.190;6.576;2022-12-15T13:37:47;5.30;;;3.53;;
13349;SDS011;6744;53.190;6.576;2022-12-15T13:48:29;7.53;;;3.80;;
13349;SDS011;6744;53.190;6.576;2022-12-15T13:51:00;6.70;;;3.63;;
13349;SDS011;6744;53.190;6.576;2022-12-15T13:53:30;8.33;;;3.23;;
13349;SDS011;6744;53.190;6.576;2022-12-15T13:58:49;6.37;;;3.20;;
13349;SDS011;6744;53.190;6.576;2022-12-15T14:01:19;7.93;;;3.70;;
13349;SDS011;6744;53.190;6.576;2022-12-15T14:04:02;6.23;;;3.77;;
13349;SDS011;6744;53.190;6.576;2022-12-15T14:06:39;8.33;;;3.70;;
13349;SDS011;6744;53.190;6.576;2022-12-15T14:09:11;6.53;;;3.80;;
13349;SDS011;6744;53.190;6.576;2022-12-15T14:11:38;7.23;;;3.90;;
13349;SDS011;6744;53.190;6.576;2022-12-15T14:14:11;6.93;;;3.97;;
13349;SDS011;6744;53.190;6.576;2022-12-15T14:16:41;6.03;;;3.90;;
13349;SDS011;6744;53.190;6.576;2022-12-15T14:19:11;6.07;;;4.17;;
13349;SDS011;6744;53.190;6.576;2022-12-15T14:21:56;6.10;;;3.77;;
13349;SDS011;6744;53.190;6.576;2022-12-15T14:24:32;7.67;;;4.33;;
13349;SDS011;6744;53.190;6.576;2022-12-15T14:26:57;7.03;;;3.87;;
13349;SDS011;6744;53.190;6.576;2022-12-15T14:29:23;4.43;;;3.57;;
13349;SDS011;6744;53.190;6.576;2022-12-15T14:31:50;7.80;;;4.63;;
13349;SDS011;6744;53.190;6.576;2022-12-15T14:36:57;7.63;;;4.73;;
13349;SDS011;6744;53.190;6.576;2022-12-15T14:39:36;6.17;;;3.90;;
13349;SDS011;6744;53.190;6.576;2022-12-15T14:42:04;5.40;;;3.90;;
13349;SDS011;6744;53.190;6.576;2022-12-15T14:44:34;7.77;;;4.00;;
13349;SDS011;6744;53.190;6.576;2022-12-15T14:47:02;6.50;;;3.80;;
13349;SDS011;6744;53.190;6.576;2022-12-15T14:49:39;7.03;;;4.23;;
13349;SDS011;6744;53.190;6.576;2022-12-15T14:52:19;8.07;;;4.37;;
13349;SDS011;6744;53.190;6.576;2022-12-15T14:54:51;8.47;;;4.33;;
13349;SDS011;6744;53.190;6.576;2022-12-15T14:57:23;7.60;;;4.20;;
13349;SDS011;6744;53.190;6.576;2022-12-15T14:59:52;5.83;;;3.73;;
13349;SDS011;6744;53.190;6.576;2022-12-15T15:05:02;6.27;;;4.23;;
13349;SDS011;6744;53.190;6.576;2022-12-15T15:07:32;7.10;;;4.30;;
13349;SDS011;6744;53.190;6.576;2022-12-15T15:09:58;5.90;;;4.40;;
13349;SDS011;6744;53.190;6.576;2022-12-15T15:12:46;5.70;;;3.93;;
13349;SDS011;6744;53.190;6.576;2022-12-15T15:15:13;6.47;;;4.17;;
13349;SDS011;6744;53.190;6.576;2022-12-15T15:20:21;7.00;;;4.50;;
13349;SDS011;6744;53.190;6.576;2022-12-15T15:28:01;6.17;;;4.53;;
13349;SDS011;6744;53.190;6.576;2022-12-15T15:30:27;6.27;;;4.50;;
13349;SDS011;6744;53.190;6.576;2022-12-15T15:32:57;9.93;;;4.67;;
13349;SDS011;6744;53.190;6.576;2022-12-15T15:35:32;6.97;;;4.60;;
13349;SDS011;6744;53.190;6.576;2022-12-15T15:38:00;8.60;;;4.70;;
13349;SDS011;6744;53.190;6.576;2022-12-15T15:40:31;6.00;;;4.37;;
13349;SDS011;6744;53.190;6.576;2022-12-15T15:42:56;6.77;;;4.53;;
13349;SDS011;6744;53.190;6.576;2022-12-15T15:45:21;5.90;;;5.00;;
13349;SDS011;6744;53.190;6.576;2022-12-15T15:47:48;7.10;;;4.70;;
13349;SDS011;6744;53.190;6.576;2022-12-15T15:50:14;10.07;;;5.43;;
13349;SDS011;6744;53.190;6.576;2022-12-15T15:52:41;7.10;;;5.30;;
13349;SDS011;6744;53.190;6.576;2022-12-15T15:55:07;8.37;;;5.60;;
13349;SDS011;6744;53.190;6.576;2022-12-15T15:57:37;8.70;;;5.57;;
13349;SDS011;6744;53.190;6.576;2022-12-15T16:00:06;8.67;;;5.53;;
13349;SDS011;6744;53.190;6.576;2022-12-15T16:02:41;9.80;;;5.47;;
13349;SDS011;6744;53.190;6.576;2022-12-15T16:05:07;8.97;;;5.93;;
13349;SDS011;6744;53.190;6.576;2022-12-15T16:07:32;10.70;;;5.70;;
13349;SDS011;6744;53.190;6.576;2022-12-15T16:09:58;8.23;;;6.10;;
13349;SDS011;6744;53.190;6.576;2022-12-15T16:12:27;7.57;;;6.10;;
13349;SDS011;6744;53.190;6.576;2022-12-15T16:14:54;9.77;;;6.23;;
13349;SDS011;6744;53.190;6.576;2022-12-15T16:17:20;9.67;;;6.07;;
13349;SDS011;6744;53.190;6.576;2022-12-15T16:19:46;9.70;;;6.63;;
13349;SDS011;6744;53.190;6.576;2022-12-15T16:22:15;11.17;;;6.07;;
13349;SDS011;6744;53.190;6.576;2022-12-15T16:24:45;7.87;;;6.60;;
13349;SDS011;6744;53.190;6.576;2022-12-15T16:27:11;8.53;;;6.27;;
13349;SDS011;6744;53.190;6.576;2022-12-15T16:29:37;8.10;;;5.97;;
13349;SDS011;6744;53.190;6.576;2022-12-15T16:32:03;7.93;;;6.63;;
13349;SDS011;6744;53.190;6.576;2022-12-15T16:34:29;12.53;;;7.30;;
13349;SDS011;6744;53.190;6.576;2022-12-15T16:36:54;12.17;;;7.30;;
13349;SDS011;6744;53.190;6.576;2022-12-15T16:39:24;9.00;;;6.37;;
13349;SDS011;6744;53.190;6.576;2022-12-15T16:41:52;9.93;;;6.63;;
13349;SDS011;6744;53.190;6.576;2022-12-15T16:44:18;10.57;;;6.63;;
13349;SDS011;6744;53.190;6.576;2022-12-15T16:46:44;9.80;;;6.50;;
13349;SDS011;6744;53.190;6.576;2022-12-15T16:49:10;9.17;;;6.03;;
13349;SDS011;6744;53.190;6.576;2022-12-15T16:51:39;11.53;;;6.17;;
13349;SDS011;6744;53.190;6.576;2022-12-15T16:54:08;10.00;;;6.90;;
13349;SDS011;6744;53.190;6.576;2022-12-15T16:56:39;8.90;;;6.73;;
13349;SDS011;6744;53.190;6.576;2022-12-15T16:59:08;10.57;;;7.40;;
13349;SDS011;6744;53.190;6.576;2022-12-15T17:01:38;8.80;;;6.37;;
13349;SDS011;6744;53.190;6.576;2022-12-15T17:04:04;9.43;;;6.37;;
13349;SDS011;6744;53.190;6.576;2022-12-15T17:06:29;10.03;;;6.10;;
13349;SDS011;6744;53.190;6.576;2022-12-15T17:08:54;7.33;;;6.60;;
13349;SDS011;6744;53.190;6.576;2022-12-15T17:11:22;9.07;;;7.40;;
13349;SDS011;6744;53.190;6.576;2022-12-15T17:13:51;9.00;;;7.87;;
13349;SDS011;6744;53.190;6.576;2022-12-15T17:16:18;10.80;;;8.37;;
13349;SDS011;6744;53.190;6.576;2022-12-15T17:18:45;9.30;;;8.30;;
13349;SDS011;6744;53.190;6.576;2022-12-15T17:21:31;11.57;;;8.10;;
13349;SDS011;6744;53.190;6.576;2022-12-15T17:23:59;9.83;;;8.27;;
13349;SDS011;6744;53.190;6.576;2022-12-15T17:26:29;13.43;;;8.57;;